Time;durP1;ratioP1;P1;durP2;ratioP2;P2;SDS_P1;SDS_P2;PMS_P1;PMS_P2;Temp;Humidity;BMP_temperature;BMP_pressure;BME280_temperature;BME280_humidity;BME280_pressure;Samples;Min_cycle;Max_cycle;Signal;HPM_P1;HPM_P2
2022/12/23 00:01:19;;;;;;;;;0.25;0.00;;;;;14.32;100.00;100665.41;4919569;28;49871;-68
2022/12/23 00:03:44;;;;;;;;;2.25;1.00;;;;;14.12;100.00;100625.72;4923370;28;49774;-68
2022/12/23 00:06:12;;;;;;;;;0.00;0.00;;;;;14.26;100.00;100642.50;4927628;28;49530;-69
2022/12/23 00:08:38;;;;;;;;;0.00;0.00;;;;;14.17;100.00;100639.81;4928470;28;50677;-68
2022/12/23 00:11:09;;;;;;;;;1.00;0.00;;;;;14.47;100.00;100680.47;4930797;28;49636;-72
2022/12/23 00:16:18;;;;;;;;;1.00;0.25;;;;;14.48;100.00;100677.84;4929203;28;49349;-68
2022/12/23 00:18:44;;;;;;;;;0.00;0.00;;;;;14.53;100.00;100680.50;4924740;28;49967;-68
2022/12/23 00:21:12;;;;;;;;;0.00;0.00;;;;;14.48;100.00;100667.28;4925654;28;56705;-70
2022/12/23 00:23:40;;;;;;;;;0.25;0.25;;;;;14.55;100.00;100686.66;4915942;28;49903;-70
2022/12/23 00:26:06;;;;;;;;;0.75;0.75;;;;;14.33;100.00;100659.25;4924684;28;49759;-75
2022/12/23 00:28:32;;;;;;;;;1.00;0.00;;;;;14.57;100.00;100695.47;4929610;28;49827;-69
2022/12/23 00:30:59;;;;;;;;;0.75;0.75;;;;;14.54;100.00;100692.81;4927575;28;49703;-67
2022/12/23 00:33:30;;;;;;;;;1.00;0.00;;;;;14.54;100.00;100693.69;4922694;28;49700;-67
2022/12/23 00:35:56;;;;;;;;;0.25;0.25;;;;;14.53;100.00;100675.22;4930647;28;49502;-66
2022/12/23 00:42:52;;;;;;;;;1.00;1.00;;;;;14.34;100.00;100650.44;4929598;28;49650;-67
2022/12/23 00:44:00;;;;;;;;;0.25;0.25;;;;;14.14;100.00;100618.69;4927755;28;49505;-67
2022/12/23 00:46:25;;;;;;;;;0.00;0.00;;;;;14.44;100.00;100672.50;4924622;28;49804;-67
2022/12/23 00:51:34;;;;;;;;;0.75;0.00;;;;;14.36;100.00;100676.84;4921874;28;49807;-68
2022/12/23 00:54:00;;;;;;;;;0.25;0.25;;;;;14.33;100.00;100677.75;4929425;28;52880;-68
2022/12/23 00:56:25;;;;;;;;;0.00;0.00;;;;;14.49;100.00;100719.22;4929844;28;49506;-67
2022/12/23 00:58:50;;;;;;;;;0.75;0.00;;;;;14.50;100.00;100709.53;4927482;28;49810;-67
2022/12/23 01:06:44;;;;;;;;;0.25;0.00;;;;;14.51;100.00;100728.03;4926322;28;49308;-67
2022/12/23 01:09:09;;;;;;;;;0.00;0.00;;;;;14.48;100.00;100725.38;4915756;28;49770;-68
2022/12/23 01:11:35;;;;;;;;;0.75;0.00;;;;;14.31;100.00;100695.34;4925585;28;63385;-68
2022/12/23 01:14:00;;;;;;;;;0.75;0.75;;;;;14.46;100.00;100719.19;4927323;28;53359;-68
2022/12/23 01:16:25;;;;;;;;;0.25;0.25;;;;;14.50;100.00;100722.75;4919146;28;49657;-67
2022/12/23 01:18:51;;;;;;;;;2.00;0.00;;;;;14.43;100.00;100710.34;4925557;28;50491;-67
2022/12/23 01:21:16;;;;;;;;;0.75;0.00;;;;;14.51;100.00;100720.09;4920205;28;49963;-68
2022/12/23 01:23:41;;;;;;;;;1.00;1.00;;;;;14.41;100.00;100702.44;4924321;28;49786;-68
2022/12/23 01:26:07;;;;;;;;;0.75;0.75;;;;;14.37;100.00;100689.19;4929537;28;49498;-68
2022/12/23 01:28:34;;;;;;;;;0.00;0.00;;;;;14.52;100.00;100723.63;4922079;28;50159;-67
2022/12/23 01:31:01;;;;;;;;;1.00;0.75;;;;;14.47;100.00;100710.38;4921227;28;49858;-68
2022/12/23 01:33:29;;;;;;;;;0.00;0.00;;;;;14.52;100.00;100721.88;4915686;28;49996;-67
2022/12/23 01:36:02;;;;;;;;;0.00;0.00;;;;;14.51;100.00;100721.88;4914795;28;49946;-69
2022/12/23 01:38:28;;;;;;;;;0.00;0.00;;;;;14.52;100.00;100726.28;4914205;28;50438;-68
2022/12/23 01:40:54;;;;;;;;;1.50;1.50;;;;;14.45;100.00;100720.06;4915727;28;49872;-67
2022/12/23 01:43:20;;;;;;;;;1.00;0.00;;;;;14.50;100.00;100717.47;4919606;28;49946;-68
2022/12/23 01:45:45;;;;;;;;;2.00;2.00;;;;;14.54;100.00;100729.78;4924897;28;49625;-68
2022/12/23 01:48:25;;;;;;;;;3.25;3.25;;;;;14.49;100.00;100726.28;4928426;28;50804;-69
2022/12/23 01:51:03;;;;;;;;;3.00;3.00;;;;;14.56;100.00;100725.41;4929974;28;49529;-67
2022/12/23 01:53:31;;;;;;;;;4.00;4.00;;;;;14.56;100.00;100725.41;4926692;28;49323;-69
2022/12/23 01:56:12;;;;;;;;;3.00;3.00;;;;;14.56;100.00;100734.19;4928964;28;50164;-68
2022/12/23 01:58:41;;;;;;;;;4.50;2.00;;;;;14.42;100.00;100703.31;4925889;28;50808;-68
2022/12/23 02:03:56;;;;;;;;;0.00;0.00;;;;;14.35;100.00;100707.66;4926334;28;49763;-68
2022/12/23 02:09:24;;;;;;;;;0.50;0.50;;;;;14.47;100.00;100728.00;4896261;28;49762;-68
2022/12/23 02:12:04;;;;;;;;;0.75;0.75;;;;;14.46;100.00;100726.22;4919606;28;51133;-67
2022/12/23 02:17:30;;;;;;;;;0.00;0.00;;;;;14.30;100.00;100699.75;4921384;28;49829;-67
2022/12/23 02:20:08;;;;;;;;;0.00;0.00;;;;;14.47;100.00;100718.31;4923510;28;52878;-67
2022/12/23 02:22:45;;;;;;;;;0.00;0.00;;;;;14.27;100.00;100683.88;4920240;28;49816;-68
2022/12/23 02:25:16;;;;;;;;;0.00;0.00;;;;;14.51;100.00;100719.22;4916137;28;49852;-68
2022/12/23 02:28:06;;;;;;;;;0.00;0.00;;;;;14.36;100.00;100687.44;4925450;28;49713;-67
2022/12/23 02:30:59;;;;;;;;;0.00;0.00;;;;;14.51;100.00;100717.47;4919001;28;49632;-67
2022/12/23 02:34:13;;;;;;;;;0.00;0.00;;;;;14.52;100.00;100721.00;4926730;28;51038;-67
2022/12/23 02:36:44;;;;;;;;;0.00;0.00;;;;;14.46;100.00;100708.63;4909495;28;49873;-67
2022/12/23 02:39:23;;;;;;;;;0.00;0.00;;;;;14.51;100.00;100719.22;4917175;28;49691;-66
2022/12/23 02:41:56;;;;;;;;;0.00;0.00;;;;;14.37;100.00;100692.72;4915992;28;49744;-67
2022/12/23 02:44:46;;;;;;;;;0.00;0.00;;;;;14.50;100.00;100704.25;4918908;28;49921;-67
2022/12/23 02:47:18;;;;;;;;;0.00;0.00;;;;;14.44;100.00;100706.81;4916613;28;49846;-71
2022/12/23 02:49:49;;;;;;;;;1.50;0.50;;;;;14.50;100.00;100717.47;4919928;28;50054;-67
2022/12/23 02:52:19;;;;;;;;;0.00;0.00;;;;;14.45;100.00;100698.94;4922165;28;50022;-67
2022/12/23 02:54:55;;;;;;;;;1.50;0.25;;;;;14.25;100.00;100676.81;4908461;28;49760;-67
2022/12/23 02:57:28;;;;;;;;;0.00;0.00;;;;;14.42;100.00;100703.31;4917799;28;49829;-67
2022/12/23 02:59:55;;;;;;;;;0.25;0.25;;;;;13.88;100.00;100621.22;4912863;28;49706;-66
2022/12/23 03:02:21;;;;;;;;;0.75;0.25;;;;;14.36;100.00;100705.91;4912586;28;49893;-67
2022/12/23 03:04:46;;;;;;;;;0.50;0.50;;;;;14.16;100.00;100668.84;4911970;28;50003;-69
2022/12/23 03:07:25;;;;;;;;;1.00;1.00;;;;;14.29;100.00;100697.97;4911571;28;55415;-67
2022/12/23 03:10:06;;;;;;;;;0.75;0.75;;;;;14.34;100.00;100703.28;4913129;28;49819;-67
2022/12/23 03:12:49;;;;;;;;;0.00;0.00;;;;;14.42;100.00;100711.22;4921620;28;50525;-67
2022/12/23 03:15:20;;;;;;;;;3.50;1.00;;;;;14.36;100.00;100711.19;4916933;28;49895;-67
2022/12/23 03:17:48;;;;;;;;;1.25;1.00;;;;;14.35;100.00;100697.09;4920630;28;49632;-67
2022/12/23 03:20:25;;;;;;;;;0.00;0.00;;;;;14.33;100.00;100690.94;4917498;28;49784;-67
2022/12/23 03:23:18;;;;;;;;;2.00;2.00;;;;;14.11;100.00;100645.09;4921781;28;49936;-69
2022/12/23 03:26:08;;;;;;;;;1.50;1.00;;;;;14.35;100.00;100691.81;4918661;28;49822;-67
2022/12/23 03:28:46;;;;;;;;;0.00;0.00;;;;;14.32;100.00;100697.97;4915751;28;49910;-67
2022/12/23 03:31:18;;;;;;;;;2.25;1.50;;;;;13.75;100.00;100608.84;4919753;28;49797;-67
2022/12/23 03:33:52;;;;;;;;;1.75;1.00;;;;;14.25;100.00;100690.91;4916925;28;50043;-67
2022/12/23 03:36:23;;;;;;;;;0.00;0.00;;;;;14.19;100.00;100680.34;4913951;28;50086;-67
2022/12/23 03:38:53;;;;;;;;;1.00;1.00;;;;;14.01;100.00;100657.38;4920525;28;49933;-67
2022/12/23 03:41:26;;;;;;;;;2.00;1.00;;;;;14.15;100.00;100688.22;4921806;28;49932;-67
2022/12/23 03:43:56;;;;;;;;;0.25;0.25;;;;;14.29;100.00;100716.47;4920753;28;50708;-68
2022/12/23 03:46:29;;;;;;;;;2.00;1.00;;;;;14.15;100.00;100683.81;4915254;28;49832;-67
2022/12/23 03:48:59;;;;;;;;;2.00;0.00;;;;;14.06;100.00;100654.72;4915291;28;49898;-67
2022/12/23 03:51:31;;;;;;;;;0.25;0.25;;;;;14.17;100.00;100676.78;4915601;28;49641;-66
2022/12/23 03:54:04;;;;;;;;;0.50;0.50;;;;;13.75;100.00;100607.06;4915200;28;49726;-68
2022/12/23 03:56:38;;;;;;;;;1.50;0.50;;;;;14.23;100.00;100699.69;4915836;28;49929;-66
2022/12/23 03:59:13;;;;;;;;;1.25;1.00;;;;;14.22;100.00;100695.31;4915501;28;49768;-66
2022/12/23 04:02:21;;;;;;;;;3.00;1.00;;;;;14.19;100.00;100706.72;4915676;28;49588;-67
2022/12/23 04:05:07;;;;;;;;;1.00;1.00;;;;;13.94;100.00;100668.75;4907877;28;49971;-67
2022/12/23 04:07:46;;;;;;;;;0.50;0.50;;;;;14.14;100.00;100692.63;4917854;28;50030;-66
2022/12/23 04:10:12;;;;;;;;;1.00;1.00;;;;;14.06;100.00;100662.66;4924318;28;49855;-67
2022/12/23 04:12:38;;;;;;;;;1.00;1.00;;;;;14.15;100.00;100669.72;4926875;28;49808;-67
2022/12/23 04:15:04;;;;;;;;;3.00;2.00;;;;;13.99;100.00;100653.84;4918224;28;49812;-69
2022/12/23 04:17:29;;;;;;;;;1.25;0.00;;;;;14.04;100.00;100665.28;4924151;28;49688;-69
2022/12/23 04:19:55;;;;;;;;;1.50;0.50;;;;;14.07;100.00;100660.88;4927820;28;49773;-69
2022/12/23 04:22:20;;;;;;;;;0.75;0.00;;;;;14.06;100.00;100670.56;4923926;28;50031;-66
2022/12/23 04:24:45;;;;;;;;;4.50;2.00;;;;;14.07;100.00;100676.72;4926208;28;54812;-67
2022/12/23 04:27:13;;;;;;;;;2.25;0.50;;;;;14.04;100.00;100690.81;4926409;28;49593;-67
2022/12/23 04:29:38;;;;;;;;;3.00;1.25;;;;;13.72;100.00;100640.50;4927102;28;50242;-66
2022/12/23 04:32:04;;;;;;;;;0.00;0.00;;;;;13.77;100.00;100644.03;4926273;28;49730;-68
2022/12/23 04:34:29;;;;;;;;;1.00;1.00;;;;;14.00;100.00;100678.47;4926316;28;49885;-69
2022/12/23 04:36:55;;;;;;;;;0.00;0.00;;;;;13.88;100.00;100665.19;4926052;28;62523;-66
2022/12/23 04:39:20;;;;;;;;;3.00;1.00;;;;;14.00;100.00;100676.72;4923399;28;49668;-66
2022/12/23 04:41:45;;;;;;;;;1.25;1.00;;;;;13.97;100.00;100675.78;4925907;28;49985;-66
2022/12/23 04:44:11;;;;;;;;;0.00;0.00;;;;;13.80;100.00;100658.97;4923270;28;66951;-67
2022/12/23 04:46:36;;;;;;;;;1.00;1.00;;;;;13.97;100.00;100678.44;4927303;28;49507;-67
2022/12/23 04:49:01;;;;;;;;;3.00;2.00;;;;;13.86;100.00;100659.03;4919863;28;49785;-70
2022/12/23 04:51:27;;;;;;;;;2.00;1.00;;;;;13.93;100.00;100663.47;4919528;28;51295;-68
2022/12/23 04:53:52;;;;;;;;;1.00;1.00;;;;;13.97;100.00;100679.31;4926297;28;51576;-67
2022/12/23 04:56:17;;;;;;;;;1.00;1.00;;;;;13.99;100.00;100668.75;4929236;28;59968;-70
2022/12/23 04:58:42;;;;;;;;;1.75;1.00;;;;;13.77;100.00;100622.91;4916251;28;57960;-68
2022/12/23 05:01:10;;;;;;;;;1.50;1.00;;;;;14.04;100.00;100664.41;4922945;28;50608;-68
2022/12/23 05:03:36;;;;;;;;;1.00;1.00;;;;;13.70;100.00;100592.09;4922626;28;49659;-70
2022/12/23 05:06:03;;;;;;;;;0.25;0.25;;;;;13.85;100.00;100623.84;4913615;28;49840;-70
2022/12/23 05:08:28;;;;;;;;;3.00;1.00;;;;;14.10;100.00;100656.53;4921226;28;49813;-68
2022/12/23 05:10:54;;;;;;;;;1.50;1.50;;;;;14.14;100.00;100662.69;4915282;28;49851;-70
2022/12/23 05:13:20;;;;;;;;;3.50;1.00;;;;;13.79;100.00;100599.16;4916425;28;49827;-69
2022/12/23 05:15:48;;;;;;;;;0.75;0.00;;;;;14.15;100.00;100665.34;4913414;28;50052;-67
2022/12/23 05:18:14;;;;;;;;;3.25;1.00;;;;;13.91;100.00;100615.09;4914066;28;49780;-68
2022/12/23 05:20:40;;;;;;;;;2.75;0.75;;;;;14.09;100.00;100638.94;4914701;28;49641;-68
2022/12/23 05:23:05;;;;;;;;;1.00;1.00;;;;;14.18;100.00;100644.22;4913945;28;49814;-69
2022/12/23 05:25:35;;;;;;;;;2.00;1.00;;;;;14.23;100.00;100645.13;4914737;28;49942;-68
2022/12/23 05:28:01;;;;;;;;;2.00;1.00;;;;;14.18;100.00;100633.66;4914438;28;49852;-68
2022/12/23 05:30:26;;;;;;;;;1.75;1.75;;;;;14.26;100.00;100642.50;4913014;28;50410;-68
2022/12/23 05:32:53;;;;;;;;;1.25;1.00;;;;;14.08;100.00;100615.13;4912850;28;63561;-68
2022/12/23 05:35:19;;;;;;;;;0.50;0.00;;;;;14.09;100.00;100619.53;4914362;28;49728;-68
2022/12/23 05:37:44;;;;;;;;;0.25;0.00;;;;;14.25;100.00;100640.72;4913787;28;49688;-68
2022/12/23 05:40:09;;;;;;;;;1.50;1.50;;;;;14.29;100.00;100642.53;4913663;28;50061;-68
2022/12/23 05:42:35;;;;;;;;;0.00;0.00;;;;;14.31;100.00;100635.50;4912803;28;49954;-69
2022/12/23 05:45:00;;;;;;;;;1.00;0.00;;;;;14.24;100.00;100611.69;4914775;28;59961;-68
2022/12/23 05:47:25;;;;;;;;;0.50;0.50;;;;;14.20;100.00;100612.56;4912284;28;49841;-69
2022/12/23 05:49:51;;;;;;;;;0.75;0.00;;;;;14.36;100.00;100624.03;4913517;28;49710;-72
2022/12/23 05:52:16;;;;;;;;;1.25;0.75;;;;;14.20;100.00;100594.97;4914823;28;49643;-68
2022/12/23 05:54:41;;;;;;;;;2.00;2.00;;;;;14.27;100.00;100609.06;4918890;28;64354;-68
2022/12/23 05:57:06;;;;;;;;;0.50;0.50;;;;;14.28;100.00;100606.44;4920247;28;49614;-68
2022/12/23 05:59:32;;;;;;;;;0.25;0.25;;;;;14.38;100.00;100617.00;4919183;28;49941;-68
2022/12/23 06:01:57;;;;;;;;;0.00;0.00;;;;;14.37;100.00;100621.41;4922770;28;57097;-69
2022/12/23 06:04:22;;;;;;;;;1.25;0.00;;;;;14.31;100.00;100624.94;4914822;28;49768;-68
2022/12/23 06:06:48;;;;;;;;;0.00;0.00;;;;;14.38;100.00;100627.56;4917472;28;49664;-68
2022/12/23 06:09:13;;;;;;;;;1.00;1.00;;;;;14.19;100.00;100597.59;4914512;28;49912;-68
2022/12/23 06:11:38;;;;;;;;;1.00;0.50;;;;;14.21;100.00;100587.94;4913915;28;49861;-69
2022/12/23 06:14:06;;;;;;;;;0.00;0.00;;;;;14.37;100.00;100610.84;4913780;28;49857;-68
2022/12/23 06:16:31;;;;;;;;;0.00;0.00;;;;;14.44;100.00;100617.03;4913659;28;49973;-69
2022/12/23 06:18:56;;;;;;;;;1.25;1.25;;;;;14.40;100.00;100605.59;4911960;28;49875;-69
2022/12/23 06:21:24;;;;;;;;;2.00;0.75;;;;;14.43;100.00;100626.72;4913409;28;50776;-68
2022/12/23 06:23:49;;;;;;;;;0.00;0.00;;;;;14.43;100.00;100625.84;4913952;28;49733;-68
2022/12/23 06:26:15;;;;;;;;;2.00;0.00;;;;;14.46;100.00;100620.59;4912837;28;49643;-68
2022/12/23 06:28:40;;;;;;;;;0.00;0.00;;;;;14.41;100.00;100620.56;4913724;28;49644;-68
2022/12/23 06:31:05;;;;;;;;;1.75;0.00;;;;;14.35;100.00;100602.03;4913933;28;50802;-68
2022/12/23 06:33:30;;;;;;;;;0.25;0.25;;;;;14.41;100.00;100598.53;4913399;28;61550;-68
2022/12/23 06:35:56;;;;;;;;;0.50;0.00;;;;;14.30;100.00;100573.00;4927881;28;49557;-70
2022/12/23 06:38:21;;;;;;;;;0.00;0.00;;;;;14.43;100.00;100594.16;4926629;28;54609;-73
2022/12/23 06:40:46;;;;;;;;;0.00;0.00;;;;;14.39;100.00;100589.75;4928304;28;49619;-69
2022/12/23 06:43:12;;;;;;;;;0.50;0.00;;;;;14.47;100.00;100596.81;4927596;28;56230;-69
2022/12/23 06:45:38;;;;;;;;;1.00;0.00;;;;;14.29;100.00;100571.25;4919938;28;49917;-68
2022/12/23 06:48:04;;;;;;;;;0.00;0.00;;;;;14.43;100.00;100573.00;4919442;28;49820;-69
2022/12/23 06:50:29;;;;;;;;;1.00;0.00;;;;;14.41;100.00;100566.84;4925634;28;49734;-71
2022/12/23 06:52:55;;;;;;;;;2.00;0.50;;;;;14.25;100.00;100543.03;4924526;28;54654;-68
2022/12/23 06:55:20;;;;;;;;;0.00;0.00;;;;;14.35;100.00;100557.16;4927342;28;49778;-68
2022/12/23 06:57:45;;;;;;;;;1.00;0.00;;;;;14.37;100.00;100550.09;4927662;28;53835;-68
2022/12/23 07:00:11;;;;;;;;;0.00;0.00;;;;;14.45;100.00;100563.38;4927494;28;53199;-68
2022/12/23 07:02:37;;;;;;;;;0.00;0.00;;;;;14.27;100.00;100535.13;4927301;28;49201;-69
2022/12/23 07:05:02;;;;;;;;;0.00;0.00;;;;;14.37;100.00;100554.50;4927741;28;49175;-67
2022/12/23 07:07:28;;;;;;;;;0.00;0.00;;;;;14.36;100.00;100547.47;4923123;28;49782;-71
2022/12/23 07:09:53;;;;;;;;;0.00;0.00;;;;;14.48;100.00;100566.03;4912812;28;50054;-70
2022/12/23 07:12:18;;;;;;;;;0.00;0.00;;;;;14.27;100.00;100530.72;4913067;28;51847;-68
2022/12/23 07:14:44;;;;;;;;;0.25;0.00;;;;;14.39;100.00;100535.16;4912603;28;61552;-68
2022/12/23 07:17:09;;;;;;;;;0.00;0.00;;;;;14.24;100.00;100514.00;4912792;28;49899;-67
2022/12/23 07:19:34;;;;;;;;;0.00;0.00;;;;;14.52;100.00;100554.56;4912831;28;50495;-68
2022/12/23 07:22:00;;;;;;;;;0.00;0.00;;;;;14.29;100.00;100513.16;4911688;28;56434;-69
2022/12/23 07:24:25;;;;;;;;;0.00;0.00;;;;;14.44;100.00;100541.31;4912907;28;49746;-68
2022/12/23 07:26:51;;;;;;;;;0.00;0.00;;;;;14.38;100.00;100514.94;4912892;28;49909;-69
2022/12/23 07:29:16;;;;;;;;;0.00;0.00;;;;;14.38;100.00;100521.94;4912102;28;50733;-69
2022/12/23 07:31:41;;;;;;;;;1.00;0.00;;;;;14.17;100.00;100478.78;4910730;28;49610;-68
2022/12/23 07:34:08;;;;;;;;;0.00;0.00;;;;;14.55;100.00;100552.81;4912615;28;49845;-69
2022/12/23 07:36:34;;;;;;;;;1.25;0.00;;;;;14.38;100.00;100517.56;4921693;28;50022;-68
2022/12/23 07:38:59;;;;;;;;;0.25;0.25;;;;;14.43;100.00;100522.84;4909822;28;50853;-69
2022/12/23 07:41:25;;;;;;;;;0.00;0.00;;;;;14.42;100.00;100529.00;4921076;28;49766;-68
2022/12/23 07:43:50;;;;;;;;;0.00;0.00;;;;;14.53;100.00;100544.00;4922213;28;49636;-68
2022/12/23 07:46:15;;;;;;;;;0.00;0.00;;;;;14.23;100.00;100484.06;4923091;28;49796;-69
2022/12/23 07:48:41;;;;;;;;;1.00;1.00;;;;;14.33;100.00;100509.63;4923990;28;56735;-68
2022/12/23 07:51:06;;;;;;;;;0.00;0.00;;;;;14.60;100.00;100555.47;4919203;28;49818;-63
2022/12/23 07:53:32;;;;;;;;;0.00;0.00;;;;;14.61;100.00;100557.22;4915705;28;50257;-74
2022/12/23 07:55:57;;;;;;;;;0.00;0.00;;;;;13.89;100.00;100416.25;4912938;28;49736;-74
2022/12/23 07:58:23;;;;;;;;;0.00;0.00;;;;;14.67;100.00;100548.41;4912815;28;49821;-67
2022/12/23 08:00:49;;;;;;;;;0.00;0.00;;;;;14.47;100.00;100506.13;4912832;28;49830;-68
2022/12/23 08:03:14;;;;;;;;;1.00;0.00;;;;;14.38;100.00;100485.88;4912035;28;51118;-70
2022/12/23 08:05:39;;;;;;;;;0.00;0.00;;;;;14.42;100.00;100490.25;4912449;28;49892;-69
2022/12/23 08:08:04;;;;;;;;;0.50;0.00;;;;;14.50;100.00;100507.03;4912246;28;50732;-71
2022/12/23 08:10:30;;;;;;;;;0.00;0.00;;;;;14.74;100.00;100545.78;4913357;28;53082;-71
2022/12/23 08:12:59;;;;;;;;;1.00;1.00;;;;;14.49;100.00;100488.56;4915884;28;49708;-70
2022/12/23 08:15:24;;;;;;;;;0.00;0.00;;;;;14.74;100.00;100526.41;4910306;28;49943;-70
2022/12/23 08:17:49;;;;;;;;;0.00;0.00;;;;;14.77;100.00;100522.03;4915293;28;51690;-71
2022/12/23 08:20:14;;;;;;;;;2.00;1.00;;;;;14.70;100.00;100504.41;4914548;28;59727;-71
2022/12/23 08:22:40;;;;;;;;;0.00;0.00;;;;;14.74;100.00;100495.56;4915349;28;49929;-72
2022/12/23 08:25:05;;;;;;;;;1.00;0.00;;;;;14.72;100.00;100492.06;4913480;28;49892;-72
2022/12/23 08:27:31;;;;;;;;;0.00;0.00;;;;;14.53;100.00;100477.09;4914115;28;50125;-71
2022/12/23 08:29:56;;;;;;;;;0.00;0.00;;;;;14.57;100.00;100460.34;4917021;28;49939;-71
2022/12/23 08:32:25;;;;;;;;;0.00;0.00;;;;;14.85;100.00;100495.56;4915292;28;50000;-69
2022/12/23 08:34:51;;;;;;;;;0.50;0.00;;;;;14.38;100.00;100418.94;4926854;28;49732;-69
2022/12/23 08:37:16;;;;;;;;;0.00;0.00;;;;;14.68;100.00;100476.22;4914891;28;50808;-72
2022/12/23 08:39:42;;;;;;;;;0.00;0.00;;;;;14.71;100.00;100471.81;4915548;28;49816;-71
2022/12/23 08:42:08;;;;;;;;;0.00;0.00;;;;;14.84;100.00;100489.41;4915491;28;50158;-82
2022/12/23 08:44:33;;;;;;;;;0.00;0.00;;;;;14.53;100.00;100438.34;4911698;28;49879;-72
2022/12/23 08:46:58;;;;;;;;;1.75;0.00;;;;;14.92;100.00;100488.53;4917289;28;50673;-74
2022/12/23 08:49:24;;;;;;;;;0.00;0.00;;;;;14.64;100.00;100459.47;4914772;28;49945;-73
2022/12/23 08:51:49;;;;;;;;;1.50;0.00;;;;;14.79;100.00;100451.53;4912690;28;49770;-74
2022/12/23 08:54:16;;;;;;;;;0.75;0.75;;;;;14.73;100.00;100419.84;4914167;28;49783;-74
2022/12/23 08:56:41;;;;;;;;;0.00;0.00;;;;;14.87;100.00;100449.78;4913713;28;50568;-79
2022/12/23 08:59:15;;;;;;;;;0.25;0.25;;;;;14.97;100.00;100449.75;4913946;28;50004;-75
2022/12/23 09:01:41;;;;;;;;;0.00;0.00;;;;;14.26;100.00;100338.84;4914267;28;50852;-80
2022/12/23 09:04:06;;;;;;;;;0.00;0.00;;;;;14.80;100.00;100395.16;4916669;28;49687;-67
2022/12/23 09:06:39;;;;;;;;;2.00;0.00;;;;;14.57;100.00;100339.75;4914214;28;50657;-70
2022/12/23 09:09:05;;;;;;;;;0.25;0.25;;;;;14.92;100.00;100373.09;4913918;28;49991;-70
2022/12/23 09:11:31;;;;;;;;;0.00;0.00;;;;;14.63;100.00;100322.13;4913814;28;50058;-69
2022/12/23 09:13:58;;;;;;;;;0.00;0.00;;;;;14.98;100.00;100380.16;4913745;28;49803;-69
2022/12/23 09:16:24;;;;;;;;;0.50;0.00;;;;;14.85;100.00;100356.38;4913433;28;50969;-69
2022/12/23 09:18:50;;;;;;;;;0.00;0.00;;;;;14.85;100.00;100372.22;4913207;28;49946;-70
2022/12/23 09:21:19;;;;;;;;;0.00;0.00;;;;;14.96;100.00;100409.25;4912853;28;50003;-69
2022/12/23 09:23:44;;;;;;;;;0.00;0.00;;;;;15.08;100.00;100455.91;4913351;28;50066;-70
2022/12/23 09:26:15;;;;;;;;;0.00;0.00;;;;;14.81;100.00;100398.69;4913395;28;50918;-69
2022/12/23 09:28:41;;;;;;;;;0.00;0.00;;;;;15.04;100.00;100441.78;4913675;28;50112;-69
2022/12/23 09:31:10;;;;;;;;;0.00;0.00;;;;;15.16;100.00;100459.41;4913498;28;50102;-69
2022/12/23 09:33:36;;;;;;;;;0.00;0.00;;;;;15.11;100.00;100456.75;4913704;28;49796;-69
2022/12/23 09:36:02;;;;;;;;;0.00;0.00;;;;;15.17;100.00;100483.19;4912883;28;51228;-69
2022/12/23 09:38:28;;;;;;;;;0.50;0.00;;;;;14.91;100.00;100437.44;4912929;28;49782;-69
2022/12/23 09:41:11;;;;;;;;;0.75;0.75;;;;;14.99;100.00;100443.59;4913342;28;50125;-69
2022/12/23 09:43:42;;;;;;;;;1.00;0.00;;;;;15.17;100.00;100462.03;4913283;28;49947;-69
2022/12/23 09:46:20;;;;;;;;;0.00;0.00;;;;;15.00;100.00;100426.84;4913130;28;49937;-68
2022/12/23 09:48:59;;;;;;;;;0.00;0.00;;;;;14.95;100.00;100411.84;4905616;28;50864;-69
2022/12/23 09:51:26;;;;;;;;;0.00;0.00;;;;;15.22;100.00;100463.78;4906142;28;50033;-68
2022/12/23 09:54:16;;;;;;;;;0.00;0.00;;;;;15.22;100.00;100456.72;4912415;28;49787;-69
2022/12/23 09:56:51;;;;;;;;;0.00;0.00;;;;;15.27;100.00;100464.66;4911243;28;49869;-70
2022/12/23 09:59:16;;;;;;;;;0.75;0.00;;;;;15.28;100.00;100451.44;4912807;28;50045;-69
2022/12/23 10:01:54;;;;;;;;;0.00;0.00;;;;;15.29;100.00;100452.31;4912893;28;49752;-69
2022/12/23 10:04:49;;;;;;;;;0.00;0.00;;;;;15.32;100.00;100462.88;4913383;28;49901;-69
2022/12/23 10:07:30;;;;;;;;;0.00;0.00;;;;;15.33;100.00;100454.03;4912034;28;49910;-68
2022/12/23 10:09:57;;;;;;;;;0.00;0.00;;;;;15.32;100.00;100458.47;4912879;28;49851;-76
2022/12/23 10:12:33;;;;;;;;;0.50;0.00;;;;;15.24;100.00;100440.84;4927212;28;50841;-67
2022/12/23 10:15:01;;;;;;;;;0.00;0.00;;;;;15.31;100.00;100427.59;4912184;28;49839;-68
2022/12/23 10:17:38;;;;;;;;;0.00;0.00;;;;;15.15;100.00;100395.06;4912341;28;50406;-67
2022/12/23 10:20:06;;;;;;;;;2.50;0.00;;;;;15.37;100.00;100427.59;4912311;28;49798;-67
2022/12/23 10:22:39;;;;;;;;;0.00;0.00;;;;;15.39;100.00;100431.09;4912823;28;49834;-68
2022/12/23 10:25:13;;;;;;;;;1.00;0.00;;;;;15.48;100.00;100432.84;4913038;28;50034;-69
2022/12/23 10:27:41;;;;;;;;;0.00;0.00;;;;;15.48;100.00;100442.53;4903864;28;50881;-70
2022/12/23 10:30:11;;;;;;;;;0.00;0.00;;;;;15.50;100.00;100444.28;4912565;28;50119;-69
2022/12/23 10:32:58;;;;;;;;;0.00;0.00;;;;;15.48;100.00;100443.41;4912218;28;49684;-67
2022/12/23 10:35:36;;;;;;;;;0.00;0.00;;;;;15.33;100.00;100399.38;4911762;28;49930;-77
2022/12/23 10:38:20;;;;;;;;;1.00;0.00;;;;;15.56;100.00;100438.09;4920704;28;53009;-74
2022/12/23 10:40:56;;;;;;;;;0.00;0.00;;;;;15.58;100.00;100450.44;4926342;28;49882;-70
2022/12/23 10:43:29;;;;;;;;;0.00;0.00;;;;;15.60;100.00;100438.09;4911993;28;49783;-71
2022/12/23 10:46:12;;;;;;;;;0.00;0.00;;;;;15.39;100.00;100385.25;4911978;28;49834;-71
2022/12/23 10:49:02;;;;;;;;;0.00;0.00;;;;;15.71;100.00;100412.44;4912021;28;49970;-69
2022/12/23 10:51:34;;;;;;;;;0.00;0.00;;;;;15.74;100.00;100420.41;4904189;28;50127;-68
2022/12/23 10:54:09;;;;;;;;;0.00;0.00;;;;;15.61;100.00;100386.94;4912191;28;49814;-69
2022/12/23 10:56:34;;;;;;;;;0.00;0.00;;;;;15.75;100.00;100397.47;4911866;28;49862;-70
2022/12/23 10:59:00;;;;;;;;;1.75;0.00;;;;;15.82;100.00;100407.09;4911392;28;51021;-68
2022/12/23 11:01:28;;;;;;;;;0.00;0.00;;;;;15.97;100.00;100403.47;4912387;28;49754;-68
2022/12/23 11:04:16;;;;;;;;;0.00;0.00;;;;;16.03;100.00;100411.41;4901635;28;50243;-69
2022/12/23 11:06:47;;;;;;;;;0.00;0.00;;;;;16.05;100.00;100412.25;4907505;28;49929;-73
2022/12/23 11:09:20;;;;;;;;;0.00;0.00;;;;;16.03;100.00;100404.34;4905383;28;51506;-73
2022/12/23 11:12:01;;;;;;;;;0.50;0.50;;;;;15.71;100.00;100351.59;4927229;28;49313;-73
2022/12/23 11:14:31;;;;;;;;;0.00;0.00;;;;;16.11;100.00;100424.56;4915945;28;49672;-74
2022/12/23 11:16:56;;;;;;;;;1.50;0.00;;;;;16.13;100.00;100434.28;4918198;28;49639;-73
2022/12/23 11:19:22;;;;;;;;;0.00;0.00;;;;;15.01;100.00;100264.69;4914527;28;49879;-74
2022/12/23 11:21:58;;;;;;;;;0.00;0.00;;;;;14.92;100.00;100246.25;4911920;28;49861;-76
2022/12/23 11:24:26;;;;;;;;;0.00;0.00;;;;;16.23;100.00;100445.69;4910965;28;49823;-73
2022/12/23 11:27:01;;;;;;;;;0.00;0.00;;;;;16.25;100.00;100428.88;4912575;28;49907;-76
2022/12/23 11:29:30;;;;;;;;;0.00;0.00;;;;;15.71;100.00;100332.19;4905710;28;50570;-73
2022/12/23 11:31:56;;;;;;;;;1.00;0.00;;;;;16.37;100.00;100449.09;4906917;28;49950;-73
2022/12/23 11:34:25;;;;;;;;;0.00;0.00;;;;;15.69;100.00;100302.22;4912523;28;49790;-79
2022/12/23 11:36:56;;;;;;;;;0.00;0.00;;;;;15.76;100.00;100308.34;4912505;28;49994;-75
2022/12/23 11:39:32;;;;;;;;;0.00;0.00;;;;;15.87;100.00;100317.97;4904401;28;50921;-78
2022/12/23 11:42:23;;;;;;;;;0.00;0.00;;;;;16.03;100.00;100355.78;4911074;28;49797;-78
2022/12/23 11:44:52;;;;;;;;;0.75;0.00;;;;;16.01;100.00;100324.00;4924714;28;49725;-76
2022/12/23 11:47:36;;;;;;;;;0.00;0.00;;;;;16.59;100.00;100432.09;4913116;28;49867;-73
2022/12/23 11:50:22;;;;;;;;;0.00;0.00;;;;;16.58;100.00;100403.84;4913090;28;50336;-76